Odessa, Texas
Current Conditions -  °F | °C
As of 11:53 PM on Monday 26 Jan 2015 (Local Time) from KODO Reporting Station
Clear Clear  
Wind Chill: 42°   Ceiling: Unl
Heat Index: 45°   Visibility: 10mi
Dew Point: 34°   Wind: 6mph
Humidity: 65%   Direction: 270°W
Pressure: 30.25"   Gusts: NA
Location:  31.85°N, 102.37°W
Report Text: KODO 270553Z AUTO 27005KT 10SM CLR 07/01 A3025 RMK AO2 SLP223 T00720011 10144 20067 401830011 55002
Loading
Personal Weather Stations






























Interactive Weather Map New forecast layout! Learn more

10-Day Weather Forecast

Advertisements
Track Severe Weather on mobile